Sheldon, Vermont
Current Conditions -  °F | °C
As of 5:35 AM on Wednesday 22 Oct 2014 (Local Time) from KFSO Reporting Station
Drizzle Drizzle  
Wind Chill: 40°   Ceiling: Unl
Heat Index: 44°   Visibility: 10mi
Dew Point: 43°   Wind: 6mph
Humidity: 97%   Direction: 360°N
Pressure: 30.15"   Gusts: NA
Location:  44.88°N, 72.94°W
Report Text: KFSO 220935Z AUTO 36005KT 10SM -DZ SCT070 SCT100 SCT120 06/06 A3015 RMK AO2 T00640059
Loading
Personal Weather Stations






























Interactive Weather Map
Tropical Storm Tracking
New forecast layout! Learn more

10-Day Weather Forecast

Advertisements
Track Severe Weather on mobile